Time;durP1;ratioP1;P1;durP2;ratioP2;P2;SDS_P1;SDS_P2;PMS_P1;PMS_P2;Temp;Humidity;BMP_temperature;BMP_pressure;BME280_temperature;BME280_humidity;BME280_pressure;Samples;Min_cycle;Max_cycle;Signal;HPM_P1;HPM_P2
2021/03/09 00:01:46;;;;;;;;;;;21.50;33.10;;;;;;500469;237;1169;-46
2021/03/09 00:03:47;;;;;;;;;;;21.50;33.10;;;;;;500494;237;1067;-47
2021/03/09 00:05:49;;;;;;;;;;;21.50;33.10;;;;;;500628;237;2184;-46
2021/03/09 00:07:50;;;;;;;;;;;21.50;33.10;;;;;;500448;237;1108;-46
2021/03/09 00:09:51;;;;;;;;;;;21.50;33.10;;;;;;500419;237;1111;-47
2021/03/09 00:11:53;;;;;;;;;;;21.50;33.10;;;;;;500433;237;1189;-47
2021/03/09 00:13:54;;;;;;;;;;;21.50;33.10;;;;;;500728;237;1062;-47
2021/03/09 00:15:55;;;;;;;;;;;21.50;33.10;;;;;;500555;237;1288;-47
2021/03/09 00:17:56;;;;;;;;;;;21.50;33.10;;;;;;500727;237;1310;-47
2021/03/09 00:19:58;;;;;;;;;;;21.50;33.10;;;;;;500654;237;1063;-47
2021/03/09 00:21:59;;;;;;;;;;;21.50;33.10;;;;;;500494;237;1215;-47
2021/03/09 00:24:00;;;;;;;;;;;21.60;33.10;;;;;;500651;237;1054;-46
2021/03/09 00:26:01;;;;;;;;;;;21.50;33.10;;;;;;500438;237;2200;-47
2021/03/09 00:28:03;;;;;;;;;;;21.50;33.00;;;;;;500350;237;1230;-47
2021/03/09 00:30:04;;;;;;;;;;;21.50;33.10;;;;;;500519;237;1109;-47
2021/03/09 00:32:05;;;;;;;;;;;21.50;33.10;;;;;;500369;237;1161;-47
2021/03/09 00:34:07;;;;;;;;;;;21.60;33.10;;;;;;500426;237;1054;-46
2021/03/09 00:36:08;;;;;;;;;;;21.60;33.10;;;;;;500438;237;1467;-47
2021/03/09 00:38:09;;;;;;;;;;;21.60;33.10;;;;;;500328;237;1163;-47
2021/03/09 00:40:10;;;;;;;;;;;21.50;33.10;;;;;;500565;237;1050;-47
2021/03/09 00:42:12;;;;;;;;;;;21.50;33.10;;;;;;500506;237;1224;-47
2021/03/09 00:44:13;;;;;;;;;;;21.60;33.10;;;;;;500549;237;982;-46
2021/03/09 00:46:14;;;;;;;;;;;21.60;33.10;;;;;;500413;237;2219;-46
2021/03/09 00:48:16;;;;;;;;;;;21.60;33.10;;;;;;500905;237;1132;-46
2021/03/09 00:50:17;;;;;;;;;;;21.50;33.00;;;;;;500644;237;1058;-47
2021/03/09 00:52:18;;;;;;;;;;;21.50;33.10;;;;;;500516;237;1213;-47
2021/03/09 00:54:19;;;;;;;;;;;21.60;33.10;;;;;;500597;237;970;-47
2021/03/09 00:56:21;;;;;;;;;;;21.50;33.10;;;;;;500432;237;1064;-47
2021/03/09 00:58:22;;;;;;;;;;;21.60;33.10;;;;;;500379;237;1117;-46
2021/03/09 01:00:23;;;;;;;;;;;21.60;33.10;;;;;;500387;237;1046;-46
2021/03/09 01:02:25;;;;;;;;;;;21.60;33.10;;;;;;500368;237;1160;-47
2021/03/09 01:04:26;;;;;;;;;;;21.60;33.10;;;;;;500525;237;1009;-47
2021/03/09 01:06:27;;;;;;;;;;;21.60;33.10;;;;;;500431;237;2204;-47
2021/03/09 01:08:28;;;;;;;;;;;21.60;33.10;;;;;;500845;237;1078;-47
2021/03/09 01:10:30;;;;;;;;;;;21.60;33.10;;;;;;500598;237;1220;-47
2021/03/09 01:12:31;;;;;;;;;;;21.60;33.10;;;;;;500405;237;1076;-47
2021/03/09 01:14:32;;;;;;;;;;;21.60;33.10;;;;;;500391;237;1022;-47
2021/03/09 01:16:33;;;;;;;;;;;21.60;33.10;;;;;;500630;237;1166;-47
2021/03/09 01:18:35;;;;;;;;;;;21.50;33.00;;;;;;500393;237;1052;-47
2021/03/09 01:20:36;;;;;;;;;;;21.60;33.10;;;;;;500693;237;1056;-47
2021/03/09 01:22:37;;;;;;;;;;;21.60;33.00;;;;;;500415;237;1099;-47
2021/03/09 01:24:39;;;;;;;;;;;21.60;33.00;;;;;;500873;237;1047;-47
2021/03/09 01:26:40;;;;;;;;;;;21.60;33.00;;;;;;500522;237;2180;-47
2021/03/09 01:28:41;;;;;;;;;;;21.60;33.00;;;;;;500387;237;1028;-47
2021/03/09 01:30:42;;;;;;;;;;;21.60;33.00;;;;;;500445;237;1048;-47
2021/03/09 01:32:44;;;;;;;;;;;21.60;33.00;;;;;;500366;237;1172;-47
2021/03/09 01:34:45;;;;;;;;;;;21.60;33.00;;;;;;500638;237;1089;-47
2021/03/09 01:36:46;;;;;;;;;;;21.60;33.00;;;;;;500606;237;1156;-46
2021/03/09 01:38:48;;;;;;;;;;;21.60;33.00;;;;;;500475;237;1029;-47
2021/03/09 01:40:49;;;;;;;;;;;21.60;33.00;;;;;;500538;237;1241;-47
2021/03/09 01:42:50;;;;;;;;;;;21.60;33.00;;;;;;500491;237;1040;-47
2021/03/09 01:44:51;;;;;;;;;;;21.60;33.00;;;;;;500848;237;1062;-47
2021/03/09 01:46:53;;;;;;;;;;;21.60;33.00;;;;;;500339;237;2183;-46
2021/03/09 01:48:55;;;;;;;;;;;21.60;33.00;;;;;;500362;237;1088;-47
2021/03/09 01:50:55;;;;;;;;;;;21.60;33.00;;;;;;500309;237;1391;-47
2021/03/09 01:52:57;;;;;;;;;;;21.60;33.00;;;;;;500314;237;1087;-47
2021/03/09 01:54:58;;;;;;;;;;;21.60;33.00;;;;;;500370;237;1053;-47
2021/03/09 01:56:59;;;;;;;;;;;21.60;33.00;;;;;;500564;237;1302;-47
2021/03/09 01:59:00;;;;;;;;;;;21.60;33.00;;;;;;500501;237;1021;-47
2021/03/09 02:01:02;;;;;;;;;;;21.60;32.90;;;;;;500379;237;1178;-47
2021/03/09 02:03:03;;;;;;;;;;;21.60;33.00;;;;;;500376;237;1139;-47
2021/03/09 02:05:04;;;;;;;;;;;21.60;33.00;;;;;;500394;237;1042;-47
2021/03/09 02:07:06;;;;;;;;;;;21.60;33.00;;;;;;500529;237;2140;-47
2021/03/09 02:09:07;;;;;;;;;;;21.60;33.00;;;;;;500537;237;1126;-47
2021/03/09 02:11:08;;;;;;;;;;;21.60;33.00;;;;;;500346;237;1131;-47
2021/03/09 02:13:09;;;;;;;;;;;21.70;33.00;;;;;;500436;237;1127;-47
2021/03/09 02:15:11;;;;;;;;;;;21.70;33.00;;;;;;500381;237;1242;-47
2021/03/09 02:17:12;;;;;;;;;;;21.60;32.90;;;;;;500668;237;1147;-47
2021/03/09 02:19:13;;;;;;;;;;;21.60;32.90;;;;;;500359;237;1030;-47
2021/03/09 02:21:15;;;;;;;;;;;21.60;33.00;;;;;;500667;237;1199;-46
2021/03/09 02:23:16;;;;;;;;;;;21.60;32.90;;;;;;500344;237;1060;-46
2021/03/09 02:25:17;;;;;;;;;;;21.70;33.00;;;;;;500734;237;1036;-47
2021/03/09 02:27:19;;;;;;;;;;;21.70;33.00;;;;;;500821;237;2184;-47
2021/03/09 02:29:20;;;;;;;;;;;21.70;33.00;;;;;;500495;237;1040;-46
2021/03/09 02:31:21;;;;;;;;;;;21.70;32.90;;;;;;500541;237;1188;-47
2021/03/09 02:33:23;;;;;;;;;;;21.70;32.90;;;;;;500460;237;1134;-47
2021/03/09 02:35:24;;;;;;;;;;;21.70;32.90;;;;;;500671;237;1048;-46
2021/03/09 02:37:25;;;;;;;;;;;21.70;32.90;;;;;;500356;237;1060;-46
2021/03/09 02:39:26;;;;;;;;;;;21.70;32.90;;;;;;500871;237;1115;-47
2021/03/09 02:41:28;;;;;;;;;;;21.70;32.90;;;;;;500871;237;1185;-46
2021/03/09 02:43:29;;;;;;;;;;;21.70;32.90;;;;;;500507;237;913;-47
2021/03/09 02:45:30;;;;;;;;;;;21.70;32.90;;;;;;500360;237;1136;-46
2021/03/09 02:47:32;;;;;;;;;;;21.70;32.90;;;;;;500449;237;2136;-47
2021/03/09 02:49:33;;;;;;;;;;;21.70;32.90;;;;;;500740;237;1032;-47
2021/03/09 02:51:34;;;;;;;;;;;21.70;32.90;;;;;;500378;237;1056;-47
2021/03/09 02:53:35;;;;;;;;;;;21.70;32.90;;;;;;500480;237;1100;-46
2021/03/09 02:55:37;;;;;;;;;;;21.70;32.90;;;;;;500390;237;1105;-47
2021/03/09 02:57:38;;;;;;;;;;;21.70;32.90;;;;;;500324;237;1075;-47
2021/03/09 02:59:39;;;;;;;;;;;21.70;32.90;;;;;;500471;237;1117;-47
2021/03/09 03:01:40;;;;;;;;;;;21.70;32.90;;;;;;500516;237;1056;-47
2021/03/09 03:03:42;;;;;;;;;;;21.70;32.90;;;;;;500441;237;1094;-47
2021/03/09 03:05:43;;;;;;;;;;;21.70;32.90;;;;;;500325;237;999;-47
2021/03/09 03:07:44;;;;;;;;;;;21.70;32.90;;;;;;500324;237;2184;-47
2021/03/09 03:09:46;;;;;;;;;;;21.70;32.90;;;;;;500408;237;978;-47
2021/03/09 03:11:47;;;;;;;;;;;21.70;32.80;;;;;;500593;237;1025;-47
2021/03/09 03:13:48;;;;;;;;;;;21.70;32.90;;;;;;500521;237;1136;-46
2021/03/09 03:15:49;;;;;;;;;;;21.70;32.90;;;;;;500305;237;1198;-47
2021/03/09 03:17:51;;;;;;;;;;;21.70;32.90;;;;;;500418;237;1154;-47
2021/03/09 03:19:52;;;;;;;;;;;21.70;32.90;;;;;;500326;237;1058;-47
2021/03/09 03:21:54;;;;;;;;;;;21.70;32.90;;;;;;500480;237;1355;-47
2021/03/09 03:23:55;;;;;;;;;;;21.70;32.90;;;;;;500497;237;1004;-47
2021/03/09 03:25:56;;;;;;;;;;;21.70;32.90;;;;;;500385;237;1155;-47
2021/03/09 03:27:57;;;;;;;;;;;21.70;32.90;;;;;;500327;237;2192;-47
2021/03/09 03:29:58;;;;;;;;;;;21.70;32.80;;;;;;500354;237;1081;-47
2021/03/09 03:32:00;;;;;;;;;;;21.70;32.90;;;;;;500315;237;1154;-47
2021/03/09 03:34:01;;;;;;;;;;;21.70;32.90;;;;;;500379;237;1166;-47
2021/03/09 03:36:04;;;;;;;;;;;21.70;32.90;;;;;;500761;237;1033;-47
2021/03/09 03:38:05;;;;;;;;;;;21.70;32.90;;;;;;500287;237;1171;-47
2021/03/09 03:40:06;;;;;;;;;;;21.70;32.90;;;;;;500384;237;1351;-47
2021/03/09 03:42:07;;;;;;;;;;;21.70;32.90;;;;;;500368;237;1041;-47
2021/03/09 03:44:09;;;;;;;;;;;21.70;32.80;;;;;;500425;237;1102;-47
2021/03/09 03:46:10;;;;;;;;;;;21.70;32.80;;;;;;500598;237;1056;-47
2021/03/09 03:48:11;;;;;;;;;;;21.70;32.80;;;;;;500666;235;2187;-47
2021/03/09 03:50:12;;;;;;;;;;;21.70;32.80;;;;;;500401;237;1020;-47
2021/03/09 03:52:14;;;;;;;;;;;21.70;32.80;;;;;;500524;237;1054;-47
2021/03/09 03:54:15;;;;;;;;;;;21.70;32.80;;;;;;500393;237;1027;-47
2021/03/09 03:56:16;;;;;;;;;;;21.70;32.80;;;;;;500374;237;1098;-47
2021/03/09 03:58:17;;;;;;;;;;;21.70;32.80;;;;;;500476;237;1057;-47
2021/03/09 04:00:19;;;;;;;;;;;21.70;32.80;;;;;;500401;237;1079;-47
2021/03/09 04:02:20;;;;;;;;;;;21.70;32.80;;;;;;500532;237;1005;-47
2021/03/09 04:04:21;;;;;;;;;;;21.70;32.80;;;;;;500368;237;1181;-47
2021/03/09 04:06:23;;;;;;;;;;;21.80;32.80;;;;;;500481;237;1063;-47
2021/03/09 04:08:24;;;;;;;;;;;21.70;32.80;;;;;;500356;237;2186;-47
2021/03/09 04:10:25;;;;;;;;;;;21.80;32.80;;;;;;500864;237;1039;-47
2021/03/09 04:12:26;;;;;;;;;;;21.70;32.80;;;;;;500807;237;1029;-47
2021/03/09 04:14:28;;;;;;;;;;;21.70;32.80;;;;;;500492;237;1128;-47
2021/03/09 04:16:29;;;;;;;;;;;21.80;32.80;;;;;;500464;237;1033;-47
2021/03/09 04:18:31;;;;;;;;;;;21.70;32.80;;;;;;500334;237;1147;-47
2021/03/09 04:20:32;;;;;;;;;;;21.70;32.80;;;;;;500552;237;1343;-47
2021/03/09 04:22:34;;;;;;;;;;;21.70;32.80;;;;;;500475;237;1031;-47
2021/03/09 04:24:35;;;;;;;;;;;21.70;32.80;;;;;;500410;237;1046;-47
2021/03/09 04:26:36;;;;;;;;;;;21.70;32.80;;;;;;500567;237;2196;-47
2021/03/09 04:28:37;;;;;;;;;;;21.80;32.80;;;;;;500721;237;1057;-47
2021/03/09 04:30:39;;;;;;;;;;;21.80;32.90;;;;;;500593;237;1045;-47
2021/03/09 04:32:40;;;;;;;;;;;21.80;32.80;;;;;;500367;237;1059;-47
2021/03/09 04:34:41;;;;;;;;;;;21.70;32.80;;;;;;500505;237;1272;-47
2021/03/09 04:36:42;;;;;;;;;;;21.70;32.80;;;;;;500449;237;1054;-47
2021/03/09 04:38:44;;;;;;;;;;;21.80;32.80;;;;;;500401;237;1070;-47
2021/03/09 04:40:45;;;;;;;;;;;21.80;32.80;;;;;;500674;237;1064;-47
2021/03/09 04:42:46;;;;;;;;;;;21.80;32.80;;;;;;500662;237;1015;-47
2021/03/09 04:44:48;;;;;;;;;;;21.80;32.80;;;;;;500496;237;958;-47
2021/03/09 04:46:49;;;;;;;;;;;21.80;32.70;;;;;;500371;237;2187;-46
2021/03/09 04:48:50;;;;;;;;;;;21.80;32.70;;;;;;500468;237;1158;-47
2021/03/09 04:50:51;;;;;;;;;;;21.80;32.80;;;;;;500699;237;1074;-47
2021/03/09 04:52:53;;;;;;;;;;;21.80;32.80;;;;;;500413;237;1079;-47
2021/03/09 04:54:54;;;;;;;;;;;21.80;32.80;;;;;;500577;237;1046;-47
2021/03/09 04:56:55;;;;;;;;;;;21.80;32.70;;;;;;500330;237;1051;-47
2021/03/09 04:58:57;;;;;;;;;;;21.80;32.70;;;;;;500621;237;1053;-47
2021/03/09 05:00:58;;;;;;;;;;;21.80;32.80;;;;;;500617;237;1057;-47
2021/03/09 05:02:59;;;;;;;;;;;21.80;32.70;;;;;;500627;237;1044;-47
2021/03/09 05:05:00;;;;;;;;;;;21.80;32.80;;;;;;500517;237;1488;-47
2021/03/09 05:07:02;;;;;;;;;;;21.80;32.80;;;;;;500311;237;2180;-47
2021/03/09 05:09:03;;;;;;;;;;;21.80;32.70;;;;;;500341;237;1434;-46
2021/03/09 05:11:04;;;;;;;;;;;21.80;32.70;;;;;;500513;237;1081;-47
2021/03/09 05:13:06;;;;;;;;;;;21.80;32.80;;;;;;500316;237;1058;-46
2021/03/09 05:15:07;;;;;;;;;;;21.80;32.70;;;;;;500521;237;1044;-47
2021/03/09 05:17:08;;;;;;;;;;;21.80;32.70;;;;;;500714;237;1048;-47
2021/03/09 05:19:09;;;;;;;;;;;21.80;32.70;;;;;;500419;237;1250;-46
2021/03/09 05:21:11;;;;;;;;;;;21.80;32.80;;;;;;500392;237;1097;-47
2021/03/09 05:23:12;;;;;;;;;;;21.90;32.70;;;;;;500697;237;1045;-46
2021/03/09 05:25:13;;;;;;;;;;;21.50;33.00;;;;;;500294;237;1092;-46
2021/03/09 05:27:15;;;;;;;;;;;20.90;34.10;;;;;;500267;237;2164;-47
2021/03/09 05:29:16;;;;;;;;;;;20.30;35.20;;;;;;500321;237;1227;-46
2021/03/09 05:31:17;;;;;;;;;;;19.90;36.00;;;;;;500305;237;1081;-47
2021/03/09 05:33:18;;;;;;;;;;;19.60;36.60;;;;;;500103;237;1127;-46
2021/03/09 05:35:20;;;;;;;;;;;19.30;37.00;;;;;;500118;237;1125;-46
2021/03/09 05:37:21;;;;;;;;;;;19.20;37.40;;;;;;500360;237;1141;-46
2021/03/09 05:39:22;;;;;;;;;;;19.00;37.60;;;;;;500291;237;1070;-46
2021/03/09 05:41:23;;;;;;;;;;;18.90;37.80;;;;;;500322;237;1125;-46
2021/03/09 05:43:25;;;;;;;;;;;18.80;38.00;;;;;;500166;237;1065;-46
2021/03/09 05:45:26;;;;;;;;;;;18.80;38.10;;;;;;500135;237;1034;-46
2021/03/09 05:47:27;;;;;;;;;;;18.70;38.20;;;;;;500139;237;2187;-46
2021/03/09 05:49:29;;;;;;;;;;;18.60;38.30;;;;;;500161;237;1162;-46
2021/03/09 05:51:30;;;;;;;;;;;18.60;38.50;;;;;;500098;237;1244;-46
2021/03/09 05:53:31;;;;;;;;;;;18.50;38.60;;;;;;500490;237;1053;-46
2021/03/09 05:55:32;;;;;;;;;;;18.40;38.60;;;;;;500239;237;1115;-46
2021/03/09 05:57:34;;;;;;;;;;;18.40;38.70;;;;;;500261;237;1219;-46
2021/03/09 05:59:35;;;;;;;;;;;18.40;38.70;;;;;;500178;237;1038;-46
2021/03/09 06:01:36;;;;;;;;;;;18.30;38.70;;;;;;500212;237;1140;-46
2021/03/09 06:03:38;;;;;;;;;;;18.30;38.90;;;;;;500202;237;1099;-46
2021/03/09 06:05:39;;;;;;;;;;;18.30;38.90;;;;;;499991;237;1156;-46
2021/03/09 06:07:40;;;;;;;;;;;18.20;39.00;;;;;;500056;237;2132;-46
2021/03/09 06:09:41;;;;;;;;;;;18.20;39.00;;;;;;500050;237;1220;-46
2021/03/09 06:11:43;;;;;;;;;;;18.10;39.10;;;;;;500079;237;1200;-46
2021/03/09 06:13:44;;;;;;;;;;;18.10;39.20;;;;;;500132;237;1102;-46
2021/03/09 06:15:45;;;;;;;;;;;18.00;39.10;;;;;;499967;237;1069;-46
2021/03/09 06:17:46;;;;;;;;;;;18.00;39.20;;;;;;500182;237;1131;-46
2021/03/09 06:19:48;;;;;;;;;;;18.00;39.20;;;;;;500118;237;1132;-46
2021/03/09 06:21:49;;;;;;;;;;;18.00;39.30;;;;;;500117;237;1323;-46
2021/03/09 06:23:50;;;;;;;;;;;17.90;39.30;;;;;;500104;237;1154;-46
2021/03/09 06:25:52;;;;;;;;;;;17.90;39.30;;;;;;500046;237;1210;-46
2021/03/09 06:27:53;;;;;;;;;;;18.00;39.30;;;;;;500010;237;2133;-46
2021/03/09 06:29:55;;;;;;;;;;;17.90;39.40;;;;;;500363;237;1164;-46
2021/03/09 06:31:56;;;;;;;;;;;17.90;39.40;;;;;;499913;237;1215;-46
2021/03/09 06:33:57;;;;;;;;;;;17.80;39.40;;;;;;499990;237;1101;-46
2021/03/09 06:36:00;;;;;;;;;;;17.80;39.40;;;;;;500034;237;1165;-46
2021/03/09 06:38:00;;;;;;;;;;;17.80;39.50;;;;;;499923;237;2223;-46
2021/03/09 06:40:05;;;;;;;;;;;17.70;39.50;;;;;;500165;237;1149;-46
2021/03/09 06:42:04;;;;;;;;;;;17.70;39.50;;;;;;499844;237;1710;-46
2021/03/09 06:44:05;;;;;;;;;;;17.70;39.50;;;;;;499979;237;1110;-46
2021/03/09 06:46:06;;;;;;;;;;;17.70;39.50;;;;;;499933;237;1310;-46
2021/03/09 06:48:08;;;;;;;;;;;17.70;39.50;;;;;;499862;237;2184;-46
2021/03/09 06:50:09;;;;;;;;;;;17.70;39.50;;;;;;499906;237;1234;-46
2021/03/09 06:52:10;;;;;;;;;;;17.60;39.50;;;;;;499969;237;1189;-46
2021/03/09 06:54:11;;;;;;;;;;;17.60;39.60;;;;;;499986;237;1237;-46
2021/03/09 06:56:13;;;;;;;;;;;17.70;39.40;;;;;;499904;237;1309;-46
2021/03/09 06:58:15;;;;;;;;;;;18.20;38.60;;;;;;499871;237;1103;-46
2021/03/09 07:00:16;;;;;;;;;;;18.70;37.50;;;;;;500150;237;1157;-47
2021/03/09 07:02:17;;;;;;;;;;;19.10;36.80;;;;;;499787;237;1198;-46
2021/03/09 07:04:18;;;;;;;;;;;19.30;36.20;;;;;;499892;237;1172;-46
2021/03/09 07:06:20;;;;;;;;;;;19.50;35.80;;;;;;500024;237;1185;-47
2021/03/09 07:08:21;;;;;;;;;;;19.70;35.50;;;;;;499933;237;2124;-46
2021/03/09 07:10:22;;;;;;;;;;;19.80;35.20;;;;;;499929;237;1076;-46
2021/03/09 07:12:23;;;;;;;;;;;19.90;35.10;;;;;;499857;237;1061;-46
2021/03/09 07:14:25;;;;;;;;;;;19.90;34.90;;;;;;499814;237;1156;-47
2021/03/09 07:16:26;;;;;;;;;;;20.00;34.80;;;;;;499637;237;1109;-47
2021/03/09 07:18:27;;;;;;;;;;;20.00;34.70;;;;;;499834;237;1213;-46
2021/03/09 07:20:28;;;;;;;;;;;20.10;34.70;;;;;;499845;237;1228;-47
2021/03/09 07:22:30;;;;;;;;;;;20.20;34.60;;;;;;499690;237;1078;-47
2021/03/09 07:24:31;;;;;;;;;;;20.20;34.50;;;;;;499753;237;1050;-47
2021/03/09 07:26:33;;;;;;;;;;;20.20;34.50;;;;;;499766;237;1299;-47
2021/03/09 07:28:34;;;;;;;;;;;20.20;34.40;;;;;;499673;237;2136;-47
2021/03/09 07:30:38;;;;;;;;;;;20.30;34.30;;;;;;499646;237;1374;-47
2021/03/09 07:32:37;;;;;;;;;;;20.30;34.30;;;;;;499572;237;1243;-47
2021/03/09 07:34:38;;;;;;;;;;;20.40;34.20;;;;;;499592;237;1081;-47
2021/03/09 07:36:40;;;;;;;;;;;20.40;34.20;;;;;;499624;237;1501;-47
2021/03/09 07:38:41;;;;;;;;;;;20.40;34.00;;;;;;499699;237;1114;-47
2021/03/09 07:40:42;;;;;;;;;;;20.50;34.10;;;;;;499437;237;1292;-47
2021/03/09 07:42:44;;;;;;;;;;;20.50;34.00;;;;;;499388;237;1182;-47
2021/03/09 07:44:45;;;;;;;;;;;20.50;33.90;;;;;;499625;237;1273;-47
2021/03/09 07:46:46;;;;;;;;;;;20.60;33.90;;;;;;499736;237;1138;-47
2021/03/09 07:48:47;;;;;;;;;;;20.60;33.80;;;;;;499632;237;2180;-47
2021/03/09 07:50:49;;;;;;;;;;;20.60;33.80;;;;;;499505;237;1292;-47
2021/03/09 07:52:50;;;;;;;;;;;20.70;33.80;;;;;;499587;237;1157;-47
2021/03/09 07:54:51;;;;;;;;;;;20.70;33.70;;;;;;499655;237;1167;-47
2021/03/09 07:56:52;;;;;;;;;;;20.70;33.70;;;;;;499648;237;1212;-47
2021/03/09 07:58:54;;;;;;;;;;;20.70;33.60;;;;;;499796;237;1127;-47
2021/03/09 08:00:56;;;;;;;;;;;20.70;33.60;;;;;;499486;237;1237;-47
2021/03/09 08:02:57;;;;;;;;;;;20.80;33.60;;;;;;499698;237;2082;-46
2021/03/09 08:04:58;;;;;;;;;;;20.80;33.60;;;;;;499494;237;1222;-47
2021/03/09 08:06:59;;;;;;;;;;;20.80;33.60;;;;;;499561;237;1567;-46
2021/03/09 08:09:00;;;;;;;;;;;20.80;33.50;;;;;;499473;237;2128;-47
2021/03/09 08:11:02;;;;;;;;;;;20.80;33.50;;;;;;499433;237;1154;-47
2021/03/09 08:13:03;;;;;;;;;;;20.90;33.50;;;;;;499251;237;1165;-47
2021/03/09 08:15:04;;;;;;;;;;;20.90;33.50;;;;;;499590;237;1103;-47
2021/03/09 08:17:06;;;;;;;;;;;20.90;33.40;;;;;;499476;237;1129;-47
2021/03/09 08:19:07;;;;;;;;;;;20.90;33.40;;;;;;499480;237;1184;-46
2021/03/09 08:21:08;;;;;;;;;;;20.90;33.40;;;;;;499625;237;1178;-47
2021/03/09 08:23:10;;;;;;;;;;;20.90;33.40;;;;;;499580;237;1170;-47
2021/03/09 08:25:11;;;;;;;;;;;20.90;33.40;;;;;;499491;237;1085;-47
2021/03/09 08:27:12;;;;;;;;;;;21.00;33.40;;;;;;499654;237;1192;-46
2021/03/09 08:29:13;;;;;;;;;;;21.00;33.40;;;;;;499537;237;2192;-47
2021/03/09 08:31:15;;;;;;;;;;;21.00;33.30;;;;;;499559;237;1186;-47
2021/03/09 08:33:16;;;;;;;;;;;21.00;33.30;;;;;;499506;237;1130;-47
2021/03/09 08:35:18;;;;;;;;;;;21.00;33.30;;;;;;499245;237;1115;-47
2021/03/09 08:37:19;;;;;;;;;;;21.00;33.30;;;;;;499599;237;1323;-46
2021/03/09 08:39:20;;;;;;;;;;;21.00;33.20;;;;;;499674;237;1110;-46
2021/03/09 08:41:21;;;;;;;;;;;21.00;33.30;;;;;;499711;237;1248;-47
2021/03/09 08:43:22;;;;;;;;;;;21.00;33.30;;;;;;499532;237;1099;-47
2021/03/09 08:45:24;;;;;;;;;;;21.00;33.20;;;;;;499493;237;1103;-47
2021/03/09 08:47:25;;;;;;;;;;;21.10;33.20;;;;;;499088;237;1250;-47
2021/03/09 08:49:26;;;;;;;;;;;21.10;33.20;;;;;;499345;237;2140;-47
2021/03/09 08:51:28;;;;;;;;;;;21.10;33.20;;;;;;499355;237;1368;-47
2021/03/09 08:53:29;;;;;;;;;;;21.10;33.20;;;;;;499430;237;1068;-47
2021/03/09 08:55:30;;;;;;;;;;;21.10;33.20;;;;;;499464;237;1111;-46
2021/03/09 08:57:31;;;;;;;;;;;21.10;33.20;;;;;;499408;237;1305;-47
2021/03/09 08:59:33;;;;;;;;;;;21.10;33.20;;;;;;499575;237;1140;-47
2021/03/09 09:01:34;;;;;;;;;;;21.10;33.10;;;;;;499566;237;1389;-46
2021/03/09 09:03:35;;;;;;;;;;;21.10;33.10;;;;;;499420;237;1072;-47
2021/03/09 09:05:36;;;;;;;;;;;21.10;33.10;;;;;;499658;237;1080;-47
2021/03/09 09:07:39;;;;;;;;;;;21.20;33.10;;;;;;499595;237;1175;-46
2021/03/09 09:09:39;;;;;;;;;;;21.20;33.10;;;;;;499563;237;2148;-46
2021/03/09 09:11:40;;;;;;;;;;;21.20;33.10;;;;;;499574;237;1229;-47
2021/03/09 09:13:42;;;;;;;;;;;21.20;33.10;;;;;;499410;237;1080;-47
2021/03/09 09:15:43;;;;;;;;;;;21.20;33.00;;;;;;499366;237;1141;-47
2021/03/09 09:17:44;;;;;;;;;;;21.20;33.10;;;;;;499458;237;1227;-47
2021/03/09 09:19:45;;;;;;;;;;;21.20;33.00;;;;;;499294;237;1231;-46
2021/03/09 09:21:47;;;;;;;;;;;21.20;33.00;;;;;;499255;237;1239;-47
2021/03/09 09:23:48;;;;;;;;;;;21.20;33.00;;;;;;499157;237;1156;-47
2021/03/09 09:25:49;;;;;;;;;;;21.20;33.00;;;;;;499277;237;1250;-47
2021/03/09 09:27:50;;;;;;;;;;;21.20;33.00;;;;;;499247;237;1100;-47
2021/03/09 09:29:52;;;;;;;;;;;21.20;33.00;;;;;;499633;237;2191;-47
2021/03/09 09:31:53;;;;;;;;;;;21.20;33.00;;;;;;499544;237;1252;-47
2021/03/09 09:33:54;;;;;;;;;;;21.20;33.00;;;;;;499545;237;1176;-47
2021/03/09 09:35:56;;;;;;;;;;;21.20;33.00;;;;;;499263;237;1134;-47
2021/03/09 09:37:57;;;;;;;;;;;21.20;33.00;;;;;;499538;237;1286;-47
2021/03/09 09:39:58;;;;;;;;;;;21.20;33.00;;;;;;499464;237;1076;-47
2021/03/09 09:41:59;;;;;;;;;;;21.20;33.00;;;;;;499297;237;1229;-47
2021/03/09 09:44:01;;;;;;;;;;;21.20;32.90;;;;;;499466;237;1094;-47
2021/03/09 09:46:02;;;;;;;;;;;21.20;33.00;;;;;;499585;237;1165;-47
2021/03/09 09:48:03;;;;;;;;;;;21.30;33.00;;;;;;499548;237;1213;-47
2021/03/09 09:50:05;;;;;;;;;;;21.30;32.90;;;;;;499496;237;2224;-47
2021/03/09 09:52:06;;;;;;;;;;;21.30;32.90;;;;;;499572;237;1290;-47
2021/03/09 09:54:07;;;;;;;;;;;21.30;32.90;;;;;;499441;238;1301;-47
2021/03/09 09:56:08;;;;;;;;;;;21.30;32.90;;;;;;499532;237;1381;-47
2021/03/09 09:58:10;;;;;;;;;;;21.30;33.00;;;;;;499482;237;1226;-46
2021/03/09 10:00:11;;;;;;;;;;;21.30;32.90;;;;;;499492;237;1087;-47
2021/03/09 10:02:12;;;;;;;;;;;21.30;32.90;;;;;;499420;237;1165;-47
2021/03/09 10:04:14;;;;;;;;;;;21.30;32.90;;;;;;499141;237;1087;-47
2021/03/09 10:06:15;;;;;;;;;;;21.30;32.90;;;;;;499492;237;1248;-47
2021/03/09 10:08:16;;;;;;;;;;;21.30;32.90;;;;;;499517;237;1184;-47
2021/03/09 10:10:17;;;;;;;;;;;21.30;32.90;;;;;;499376;237;2140;-47
2021/03/09 10:12:19;;;;;;;;;;;21.30;32.90;;;;;;499349;237;1192;-47
2021/03/09 10:14:20;;;;;;;;;;;21.30;32.90;;;;;;499378;237;1098;-47
2021/03/09 10:16:21;;;;;;;;;;;21.40;33.00;;;;;;499450;237;1212;-47
2021/03/09 10:18:22;;;;;;;;;;;21.30;32.90;;;;;;499435;237;1137;-47
2021/03/09 10:20:24;;;;;;;;;;;21.30;32.90;;;;;;499375;237;1136;-47
2021/03/09 10:22:25;;;;;;;;;;;21.30;32.90;;;;;;499295;237;1306;-47
2021/03/09 10:24:28;;;;;;;;;;;21.40;32.90;;;;;;499497;237;1065;-47
2021/03/09 10:26:28;;;;;;;;;;;21.40;32.90;;;;;;499536;237;1932;-47
2021/03/09 10:28:29;;;;;;;;;;;21.40;33.00;;;;;;499389;238;1114;-47
2021/03/09 10:30:31;;;;;;;;;;;21.30;32.90;;;;;;499566;237;2196;-47
2021/03/09 10:32:32;;;;;;;;;;;21.30;32.90;;;;;;499451;237;1073;-47
2021/03/09 10:34:33;;;;;;;;;;;21.40;33.00;;;;;;499576;237;1180;-45
2021/03/09 10:36:34;;;;;;;;;;;21.40;33.00;;;;;;499599;237;1386;-47
2021/03/09 10:38:36;;;;;;;;;;;21.40;32.90;;;;;;499550;237;1323;-47
2021/03/09 10:40:37;;;;;;;;;;;21.40;32.90;;;;;;499487;237;1325;-47
2021/03/09 10:42:39;;;;;;;;;;;21.40;32.90;;;;;;499920;237;1198;-47
2021/03/09 10:44:40;;;;;;;;;;;21.40;32.90;;;;;;499441;237;1056;-47
2021/03/09 10:46:41;;;;;;;;;;;21.40;32.90;;;;;;499686;237;1392;-47
2021/03/09 10:48:42;;;;;;;;;;;21.40;32.80;;;;;;500225;237;1171;-47
2021/03/09 10:50:44;;;;;;;;;;;21.40;32.90;;;;;;500029;237;2187;-47
2021/03/09 10:52:45;;;;;;;;;;;21.40;32.90;;;;;;499967;237;1109;-47
2021/03/09 10:54:46;;;;;;;;;;;21.40;32.90;;;;;;499521;237;1117;-47
2021/03/09 10:56:47;;;;;;;;;;;21.40;32.90;;;;;;499325;237;1148;-47
2021/03/09 10:58:49;;;;;;;;;;;21.40;32.90;;;;;;499264;237;1205;-47
2021/03/09 11:00:51;;;;;;;;;;;21.40;32.90;;;;;;499160;237;1222;-47
2021/03/09 11:02:51;;;;;;;;;;;21.40;32.90;;;;;;499712;237;1529;-47
2021/03/09 11:04:53;;;;;;;;;;;21.40;32.90;;;;;;499289;237;1379;-46
2021/03/09 11:06:54;;;;;;;;;;;21.40;32.90;;;;;;499359;237;1375;-47
2021/03/09 11:08:56;;;;;;;;;;;21.50;32.90;;;;;;499348;237;2196;-47
2021/03/09 11:10:57;;;;;;;;;;;21.40;32.80;;;;;;499437;237;1322;-47
2021/03/09 11:12:58;;;;;;;;;;;21.50;32.90;;;;;;499361;237;1459;-46
2021/03/09 11:14:59;;;;;;;;;;;21.50;32.90;;;;;;499408;237;1120;-47
2021/03/09 11:17:01;;;;;;;;;;;21.50;32.90;;;;;;499297;237;1198;-47
2021/03/09 11:19:02;;;;;;;;;;;21.50;32.90;;;;;;499364;237;1219;-47
2021/03/09 11:21:03;;;;;;;;;;;21.50;32.90;;;;;;499544;237;1091;-47
2021/03/09 11:23:05;;;;;;;;;;;21.50;32.90;;;;;;499672;237;1276;-47
2021/03/09 11:25:06;;;;;;;;;;;21.50;32.80;;;;;;499448;237;1114;-47
2021/03/09 11:27:09;;;;;;;;;;;21.50;32.80;;;;;;499297;237;1283;-47
2021/03/09 11:29:08;;;;;;;;;;;21.50;32.80;;;;;;499372;237;2156;-47
2021/03/09 11:31:10;;;;;;;;;;;21.50;32.80;;;;;;499314;237;1347;-47
2021/03/09 11:33:11;;;;;;;;;;;21.50;32.80;;;;;;499390;237;1325;-47
2021/03/09 11:35:12;;;;;;;;;;;21.50;32.80;;;;;;499523;237;1179;-47
2021/03/09 11:37:14;;;;;;;;;;;21.50;32.80;;;;;;499648;237;1304;-47
2021/03/09 11:39:15;;;;;;;;;;;21.50;32.80;;;;;;500168;237;1155;-47
2021/03/09 11:41:16;;;;;;;;;;;21.50;32.80;;;;;;500259;237;1132;-47
2021/03/09 11:43:17;;;;;;;;;;;21.50;32.80;;;;;;499488;237;1079;-47
2021/03/09 11:45:19;;;;;;;;;;;21.60;32.80;;;;;;499445;237;1054;-47
2021/03/09 11:47:20;;;;;;;;;;;21.50;32.70;;;;;;499691;237;1207;-47
2021/03/09 11:49:21;;;;;;;;;;;21.50;32.70;;;;;;499819;237;2191;-47
2021/03/09 11:51:22;;;;;;;;;;;21.50;32.80;;;;;;500328;237;854;-46
2021/03/09 11:53:24;;;;;;;;;;;21.50;32.70;;;;;;499709;237;1071;-47
2021/03/09 11:55:27;;;;;;;;;;;21.50;32.80;;;;;;499394;237;1293;-47
2021/03/09 11:57:26;;;;;;;;;;;21.60;32.80;;;;;;499236;237;1327;-47